createdAt,value
2023-04-10T00:01:19.512Z,5.90
2023-04-10T00:04:34.557Z,5.91
2023-04-10T00:07:42.507Z,5.92
2023-04-10T00:10:51.616Z,5.90
2023-04-10T00:14:00.492Z,5.87
2023-04-10T00:17:09.155Z,5.85
2023-04-10T00:20:17.508Z,5.85
2023-04-10T00:23:32.526Z,5.88
2023-04-10T00:26:41.261Z,5.93
2023-04-10T00:29:56.523Z,5.93
2023-04-10T00:33:18.523Z,5.94
2023-04-10T00:36:27.141Z,5.93
2023-04-10T00:39:41.579Z,5.87
2023-04-10T00:42:43.499Z,5.89
2023-04-10T00:45:58.577Z,5.87
2023-04-10T00:49:07.587Z,5.82
2023-04-10T00:52:16.538Z,5.74
2023-04-10T00:55:32.525Z,5.83
2023-04-10T00:58:40.534Z,5.79
2023-04-10T01:01:55.728Z,5.79
2023-04-10T01:05:04.427Z,5.78
2023-04-10T01:08:42.531Z,5.81
2023-04-10T01:12:02.513Z,5.82
2023-04-10T01:15:26.526Z,5.81
2023-04-10T01:18:59.790Z,5.83
2023-04-10T01:22:16.546Z,5.81
2023-04-10T01:25:41.316Z,5.79
2023-04-10T01:29:06.580Z,5.74
2023-04-10T01:32:28.528Z,5.74
2023-04-10T01:35:38.804Z,5.75
2023-04-10T01:38:49.507Z,5.75
2023-04-10T01:42:05.502Z,5.77
2023-04-10T01:45:18.523Z,5.68
2023-04-10T01:48:27.567Z,5.61
2023-04-10T01:51:37.356Z,5.50
2023-04-10T01:54:46.512Z,5.48
2023-04-10T01:58:01.509Z,5.34
2023-04-10T02:01:22.476Z,5.41
2023-04-10T02:04:44.589Z,5.42
2023-04-10T02:08:14.921Z,5.41
2023-04-10T02:11:40.517Z,5.34
2023-04-10T02:14:56.552Z,5.30
2023-04-10T02:18:12.518Z,5.31
2023-04-10T02:21:27.511Z,5.29
2023-04-10T02:24:36.214Z,5.31
2023-04-10T02:27:45.544Z,5.31
2023-04-10T02:31:00.812Z,5.32
2023-04-10T02:34:09.512Z,5.18
2023-04-10T02:37:24.523Z,5.24
2023-04-10T02:40:33.167Z,5.23
2023-04-10T02:43:47.532Z,5.21
2023-04-10T02:46:49.457Z,5.12
2023-04-10T02:50:04.498Z,5.09
2023-04-10T02:53:26.607Z,5.09
2023-04-10T02:56:35.215Z,5.08
2023-04-10T02:59:43.510Z,5.10
2023-04-10T03:02:52.308Z,5.08
2023-04-10T03:06:00.561Z,5.05
2023-04-10T03:09:09.176Z,4.95
2023-04-10T03:12:23.558Z,4.90
2023-04-10T03:15:25.609Z,4.91
2023-04-10T03:18:41.529Z,4.91
2023-04-10T03:21:50.096Z,4.93
2023-04-10T03:25:04.541Z,4.87
2023-04-10T03:28:13.174Z,4.87
2023-04-10T03:31:27.560Z,4.81
2023-04-10T03:34:36.175Z,4.84
2023-04-10T03:37:44.525Z,4.82
2023-04-10T03:40:53.267Z,4.83
2023-04-10T03:44:08.511Z,4.83
2023-04-10T03:47:10.467Z,4.79
2023-04-10T03:50:25.514Z,4.78
2023-04-10T03:53:40.505Z,4.81
2023-04-10T03:56:49.226Z,4.76
2023-04-10T03:59:57.513Z,4.77
2023-04-10T04:03:14.709Z,4.77
2023-04-10T04:06:29.491Z,4.78
2023-04-10T04:09:44.567Z,4.74
2023-04-10T04:12:53.500Z,4.73
2023-04-10T04:16:01.561Z,4.74
2023-04-10T04:19:16.999Z,4.72
2023-04-10T04:22:19.059Z,4.70
2023-04-10T04:25:33.511Z,4.72
2023-04-10T04:28:42.080Z,4.69
2023-04-10T04:32:03.596Z,4.61
2023-04-10T04:35:18.547Z,4.60
2023-04-10T04:38:27.173Z,4.59
2023-04-10T04:41:41.486Z,4.56
2023-04-10T04:44:49.518Z,4.53
2023-04-10T04:47:58.164Z,4.59
2023-04-10T04:51:06.536Z,4.55
2023-04-10T04:54:21.506Z,4.56
2023-04-10T04:57:36.518Z,4.52
2023-04-10T05:00:51.508Z,4.66
2023-04-10T05:03:53.770Z,4.69
2023-04-10T05:07:08.509Z,4.69
2023-04-10T05:10:17.203Z,4.74
2023-04-10T05:13:25.498Z,4.86
2023-04-10T05:16:40.515Z,4.91
2023-04-10T05:19:42.828Z,5.06
2023-04-10T05:22:57.541Z,5.15
2023-04-10T05:26:19.480Z,5.12
2023-04-10T05:29:28.205Z,5.15
2023-04-10T05:32:50.523Z,5.18
2023-04-10T05:36:05.541Z,5.28
2023-04-10T05:39:20.503Z,5.36
2023-04-10T05:42:35.564Z,5.36
2023-04-10T05:45:43.470Z,5.49
2023-04-10T05:48:53.794Z,5.48
2023-04-10T05:52:08.509Z,5.52
2023-04-10T05:55:10.471Z,5.53
2023-04-10T05:58:25.546Z,5.77
2023-04-10T06:01:40.539Z,5.88
2023-04-10T06:04:49.561Z,5.92
2023-04-10T06:08:04.544Z,6.06
2023-04-10T06:11:19.512Z,6.15
2023-04-10T06:14:34.517Z,6.37
2023-04-10T06:17:48.545Z,6.48
2023-04-10T06:20:57.139Z,6.74
2023-04-10T06:24:12.801Z,7.01
2023-04-10T06:27:21.111Z,7.19
2023-04-10T06:30:29.537Z,7.40
2023-04-10T06:33:51.502Z,7.58
2023-04-10T06:37:06.522Z,7.62
2023-04-10T06:40:10.666Z,7.88
2023-04-10T06:43:25.542Z,8.05
2023-04-10T06:46:27.888Z,8.11
2023-04-10T06:49:42.508Z,8.28
2023-04-10T06:52:51.137Z,8.63
2023-04-10T06:56:01.559Z,9.03
2023-04-10T06:59:18.534Z,9.34
2023-04-10T07:02:27.677Z,9.50
2023-04-10T07:05:36.125Z,9.92
2023-04-10T07:08:44.505Z,10.17
2023-04-10T07:11:53.220Z,10.44
2023-04-10T07:15:08.521Z,10.76
2023-04-10T07:18:23.560Z,11.05
2023-04-10T07:21:32.240Z,11.31
2023-04-10T07:24:47.549Z,11.72
2023-04-10T07:27:56.122Z,12.03
2023-04-10T07:31:04.544Z,12.28
2023-04-10T07:34:19.882Z,12.61
2023-04-10T07:37:34.533Z,13.01
2023-04-10T07:40:42.506Z,13.29
2023-04-10T07:43:57.571Z,13.49
2023-04-10T07:47:12.523Z,13.78
2023-04-10T07:50:27.515Z,13.93
2023-04-10T07:53:43.522Z,14.13
2023-04-10T07:56:51.505Z,13.72
2023-04-10T08:00:00.174Z,13.97
2023-04-10T08:03:11.754Z,14.30
2023-04-10T08:06:20.135Z,14.22
2023-04-10T08:09:34.493Z,14.51
2023-04-10T08:12:43.540Z,14.47
2023-04-10T08:15:58.496Z,14.54
2023-04-10T08:19:01.975Z,14.92
2023-04-10T08:22:16.507Z,15.14
2023-04-10T08:25:24.569Z,15.25
2023-04-10T08:28:33.118Z,15.16
2023-04-10T08:31:54.546Z,14.98
2023-04-10T08:35:03.185Z,15.62
2023-04-10T08:38:17.523Z,15.91
2023-04-10T08:41:26.120Z,16.39
2023-04-10T08:44:34.551Z,16.41
2023-04-10T08:47:51.572Z,15.73
2023-04-10T08:51:00.550Z,16.15
2023-04-10T08:54:23.578Z,16.13
2023-04-10T08:57:32.524Z,16.02
2023-04-10T09:00:47.548Z,15.89
2023-04-10T09:04:02.678Z,15.91
2023-04-10T09:07:17.537Z,16.13
2023-04-10T09:10:26.312Z,16.17
2023-04-10T09:13:48.559Z,15.93
2023-04-10T09:17:18.564Z,16.51
2023-04-10T09:20:28.521Z,16.79
2023-04-10T09:23:43.527Z,17.17
2023-04-10T09:26:45.410Z,16.80
2023-04-10T09:30:00.564Z,16.95
2023-04-10T09:33:33.544Z,17.25
2023-04-10T09:36:44.202Z,17.19
2023-04-10T09:39:58.563Z,17.09
2023-04-10T09:43:31.535Z,17.11
2023-04-10T09:46:40.178Z,16.67
2023-04-10T09:49:58.527Z,16.87
2023-04-10T09:53:09.410Z,16.75
2023-04-10T09:56:18.555Z,16.30
2023-04-10T09:59:33.554Z,16.20
2023-04-10T10:02:48.641Z,16.70
2023-04-10T10:05:58.531Z,17.16
2023-04-10T10:09:14.543Z,16.77
2023-04-10T10:12:22.309Z,16.75
2023-04-10T10:15:52.566Z,16.32
2023-04-10T10:19:22.527Z,16.11
2023-04-10T10:22:26.384Z,15.89
2023-04-10T10:25:42.524Z,15.75
2023-04-10T10:28:53.756Z,15.76
2023-04-10T10:32:09.046Z,15.42
2023-04-10T10:35:26.327Z,15.35
2023-04-10T10:38:36.550Z,15.23
2023-04-10T10:41:54.524Z,15.14
2023-04-10T10:45:21.597Z,15.27
2023-04-10T10:48:29.589Z,15.08
2023-04-10T10:51:53.525Z,15.09
2023-04-10T10:54:59.423Z,14.98
2023-04-10T10:58:16.551Z,14.90
2023-04-10T11:01:25.504Z,14.74
2023-04-10T11:04:52.526Z,14.86
2023-04-10T11:08:07.563Z,14.87
2023-04-10T11:11:24.871Z,14.76
2023-04-10T11:14:33.572Z,14.46
2023-04-10T11:17:56.564Z,14.45
2023-04-10T11:21:16.563Z,14.37
2023-04-10T11:24:31.545Z,14.49
2023-04-10T11:27:44.065Z,14.42
2023-04-10T11:30:58.562Z,14.30
2023-04-10T11:34:14.541Z,14.27
2023-04-10T11:37:23.473Z,14.34
2023-04-10T11:40:38.556Z,14.55
2023-04-10T11:43:40.509Z,14.72
2023-04-10T11:46:55.549Z,14.80
2023-04-10T11:50:04.528Z,14.74
2023-04-10T11:53:20.426Z,14.82
2023-04-10T11:56:28.557Z,14.73
2023-04-10T11:59:43.550Z,14.62
2023-04-10T12:02:53.126Z,14.46
2023-04-10T12:06:09.559Z,14.32
2023-04-10T12:09:16.568Z,14.40
2023-04-10T12:12:44.561Z,14.21
2023-04-10T12:15:59.566Z,14.21
2023-04-10T12:19:02.574Z,14.33
2023-04-10T12:22:19.614Z,14.29
2023-04-10T12:25:28.182Z,14.05
2023-04-10T12:28:43.566Z,13.72
2023-04-10T12:31:51.572Z,13.62
2023-04-10T12:35:07.101Z,13.73
2023-04-10T12:38:21.568Z,13.75
2023-04-10T12:41:32.271Z,13.89
2023-04-10T12:45:01.618Z,14.06
2023-04-10T12:48:10.130Z,14.14
2023-04-10T12:51:24.554Z,14.28
2023-04-10T12:54:37.566Z,14.18
2023-04-10T12:57:47.851Z,14.42
2023-04-10T13:01:03.617Z,14.87
2023-04-10T13:04:12.707Z,15.02
2023-04-10T13:07:21.235Z,15.22
2023-04-10T13:10:36.560Z,15.54
2023-04-10T13:13:45.357Z,15.71
2023-04-10T13:17:00.570Z,15.35
2023-04-10T13:20:09.619Z,15.52
2023-04-10T13:23:18.159Z,15.66
2023-04-10T13:26:32.552Z,15.55
2023-04-10T13:29:34.551Z,15.27
2023-04-10T13:32:49.590Z,15.07
2023-04-10T13:36:11.638Z,14.97
2023-04-10T13:39:13.659Z,14.96
2023-04-10T13:42:28.579Z,14.90
2023-04-10T13:45:43.583Z,15.00
2023-04-10T13:48:46.005Z,15.38
2023-04-10T13:52:00.646Z,15.07
2023-04-10T13:55:16.582Z,15.05
2023-04-10T13:58:25.232Z,15.24
2023-04-10T14:01:39.653Z,15.35
2023-04-10T14:04:54.596Z,15.63
2023-04-10T14:07:56.593Z,15.70
2023-04-10T14:11:11.562Z,15.73
2023-04-10T14:14:22.049Z,15.86
2023-04-10T14:17:36.638Z,15.88
2023-04-10T14:20:52.593Z,15.99
2023-04-10T14:23:54.548Z,16.08
2023-04-10T14:27:10.890Z,16.21
2023-04-10T14:30:20.587Z,16.16
2023-04-10T14:33:35.618Z,15.95
2023-04-10T14:36:44.594Z,15.91
2023-04-10T14:39:53.288Z,16.02
2023-04-10T14:43:01.641Z,16.00
2023-04-10T14:46:16.581Z,15.76
2023-04-10T14:49:18.537Z,15.92
2023-04-10T14:52:35.588Z,15.87
2023-04-10T14:55:44.206Z,16.08
2023-04-10T14:58:58.557Z,16.09
2023-04-10T15:02:07.471Z,16.20
2023-04-10T15:05:22.588Z,16.18
2023-04-10T15:08:24.597Z,16.21
2023-04-10T15:11:39.591Z,16.18
2023-04-10T15:14:41.691Z,16.09
2023-04-10T15:17:56.606Z,15.88
2023-04-10T15:21:05.671Z,15.91
2023-04-10T15:24:14.593Z,15.90
2023-04-10T15:27:29.605Z,15.99
2023-04-10T15:30:44.658Z,15.85
2023-04-10T15:33:59.580Z,15.72
2023-04-10T15:37:14.623Z,15.77
2023-04-10T15:40:23.600Z,15.80
2023-04-10T15:43:38.586Z,15.79
2023-04-10T15:46:47.216Z,15.63
2023-04-10T15:49:55.610Z,15.62
2023-04-10T15:53:04.402Z,15.61
2023-04-10T15:56:19.599Z,15.61
2023-04-10T15:59:27.620Z,15.54
2023-04-10T16:02:36.328Z,15.54
2023-04-10T16:05:51.592Z,15.47
2023-04-10T16:09:18.364Z,15.49
2023-04-10T16:12:39.599Z,15.55
2023-04-10T16:15:50.168Z,15.52
2023-04-10T16:19:04.636Z,15.53
2023-04-10T16:22:13.204Z,15.45
2023-04-10T16:25:27.642Z,15.33
2023-04-10T16:28:36.287Z,15.24
2023-04-10T16:31:52.707Z,15.15
2023-04-10T16:35:07.597Z,15.14
2023-04-10T16:38:16.258Z,15.17
2023-04-10T16:41:31.602Z,15.16
2023-04-10T16:44:33.998Z,15.12
2023-04-10T16:47:48.610Z,15.13
2023-04-10T16:50:57.604Z,15.14
2023-04-10T16:54:12.603Z,15.08
2023-04-10T16:57:21.815Z,15.03
2023-04-10T17:00:30.618Z,14.91
2023-04-10T17:03:45.656Z,14.96
2023-04-10T17:06:47.596Z,14.94
2023-04-10T17:10:02.579Z,14.91
2023-04-10T17:13:04.813Z,14.86
2023-04-10T17:16:21.686Z,14.83
2023-04-10T17:19:36.607Z,14.79
2023-04-10T17:22:45.595Z,14.75
2023-04-10T17:26:00.617Z,14.71
2023-04-10T17:29:02.620Z,14.69
2023-04-10T17:32:17.607Z,14.67
2023-04-10T17:35:26.368Z,14.62
2023-04-10T17:38:42.633Z,14.51
2023-04-10T17:41:57.655Z,14.56
2023-04-10T17:45:06.896Z,14.31
2023-04-10T17:48:17.001Z,14.37
2023-04-10T17:51:25.273Z,14.21
2023-04-10T17:54:40.607Z,13.98
2023-04-10T17:57:49.240Z,13.79
2023-04-10T18:01:03.653Z,13.62
2023-04-10T18:04:19.775Z,13.53
2023-04-10T18:07:28.582Z,13.46
2023-04-10T18:10:43.636Z,13.38
2023-04-10T18:13:47.026Z,13.31
2023-04-10T18:17:01.919Z,13.29
2023-04-10T18:20:17.625Z,13.27
2023-04-10T18:23:26.624Z,13.19
2023-04-10T18:26:41.631Z,13.13
2023-04-10T18:29:43.548Z,13.10
2023-04-10T18:33:06.381Z,12.98
2023-04-10T18:36:22.608Z,12.88
2023-04-10T18:39:37.606Z,12.75
2023-04-10T18:42:46.600Z,12.72
2023-04-10T18:45:55.210Z,12.66
2023-04-10T18:49:11.617Z,12.49
2023-04-10T18:52:20.936Z,12.39
2023-04-10T18:55:29.644Z,12.42
2023-04-10T18:58:45.949Z,12.34
2023-04-10T19:01:49.374Z,12.29
2023-04-10T19:05:05.117Z,12.27
2023-04-10T19:08:19.613Z,12.25
2023-04-10T19:11:22.986Z,12.23
2023-04-10T19:14:37.729Z,12.16
2023-04-10T19:17:47.628Z,12.10
2023-04-10T19:21:02.645Z,12.07
2023-04-10T19:24:20.024Z,11.99
2023-04-10T19:31:32.876Z,11.93
2023-04-10T19:34:48.041Z,11.82
2023-04-10T19:37:56.607Z,11.66
2023-04-10T19:41:20.155Z,11.54
2023-04-10T19:44:35.018Z,11.42
2023-04-10T19:47:43.526Z,11.37
2023-04-10T19:50:53.014Z,11.32
2023-04-10T19:54:01.398Z,11.30
2023-04-10T19:57:10.044Z,11.26
2023-04-10T20:00:24.901Z,11.24
2023-04-10T20:03:40.081Z,11.19
2023-04-10T20:06:48.626Z,11.19
2023-04-10T20:09:57.409Z,11.08
2023-04-10T20:13:12.639Z,11.03
2023-04-10T20:16:14.630Z,11.03
2023-04-10T20:19:29.614Z,10.98
2023-04-10T20:22:31.533Z,10.96
2023-04-10T20:25:46.620Z,10.91
2023-04-10T20:28:54.791Z,10.91
2023-04-10T20:32:03.420Z,10.96
2023-04-10T20:35:25.629Z,10.97
2023-04-10T20:38:27.838Z,10.91
2023-04-10T20:41:42.621Z,10.76
2023-04-10T20:44:57.613Z,10.77
2023-04-10T20:47:59.493Z,10.65
2023-04-10T20:51:15.628Z,10.56
2023-04-10T20:54:24.606Z,10.44
2023-04-10T20:57:33.926Z,10.33
2023-04-10T21:00:48.691Z,10.29
2023-04-10T21:03:57.817Z,10.22
2023-04-10T21:07:12.648Z,10.18
2023-04-10T21:10:27.626Z,10.10
2023-04-10T21:13:29.491Z,10.03
2023-04-10T21:16:44.685Z,9.74
2023-04-10T21:19:53.266Z,9.88
2023-04-10T21:23:01.624Z,9.76
2023-04-10T21:26:16.621Z,9.82
2023-04-10T21:29:31.609Z,9.71
2023-04-10T21:32:46.646Z,9.68
2023-04-10T21:35:54.978Z,9.62
2023-04-10T21:39:09.614Z,9.51
2023-04-10T21:42:25.611Z,9.46
2023-04-10T21:45:40.656Z,9.34
2023-04-10T21:48:48.624Z,9.22
2023-04-10T21:52:03.636Z,9.15
2023-04-10T21:55:06.452Z,9.04
2023-04-10T21:58:21.643Z,9.02
2023-04-10T22:01:30.404Z,8.95
2023-04-10T22:04:44.622Z,8.96
2023-04-10T22:08:08.616Z,8.94
2023-04-10T22:11:16.638Z,8.86
2023-04-10T22:14:31.645Z,8.89
2023-04-10T22:17:34.338Z,8.85
2023-04-10T22:20:49.665Z,8.81
2023-04-10T22:23:52.103Z,8.77
2023-04-10T22:27:06.622Z,8.73
2023-04-10T22:30:21.647Z,8.71
2023-04-10T22:33:23.532Z,8.63
2023-04-10T22:36:39.650Z,8.62
2023-04-10T22:39:42.049Z,8.60
2023-04-10T22:42:56.627Z,8.58
2023-04-10T22:45:58.491Z,8.55
2023-04-10T22:49:13.655Z,8.47
2023-04-10T22:52:15.552Z,8.48
2023-04-10T22:55:31.636Z,8.38
2023-04-10T22:58:46.612Z,8.34
2023-04-10T23:01:48.591Z,8.39
2023-04-10T23:05:03.636Z,8.37
2023-04-10T23:08:05.650Z,8.40
2023-04-10T23:11:20.644Z,8.40
2023-04-10T23:14:35.614Z,8.40
2023-04-10T23:17:50.653Z,8.41
2023-04-10T23:20:58.608Z,8.39
2023-04-10T23:24:07.261Z,8.38
2023-04-10T23:27:15.596Z,8.35
2023-04-10T23:30:30.616Z,8.37
2023-04-10T23:33:38.609Z,8.38
2023-04-10T23:36:53.918Z,8.41
2023-04-10T23:40:09.608Z,8.10
2023-04-10T23:43:18.656Z,8.38
2023-04-10T23:46:34.677Z,8.36
2023-04-10T23:49:43.186Z,8.32
2023-04-10T23:52:58.593Z,8.33
2023-04-10T23:56:07.410Z,8.41
2023-04-10T23:59:22.625Z,8.46
